createdAt,value
2022-08-18T00:00:29.616Z,5.47
2022-08-18T00:02:31.896Z,7.50
2022-08-18T00:04:48.561Z,5.45
2022-08-18T00:06:51.774Z,6.75
2022-08-18T00:08:53.599Z,4.85
2022-08-18T00:10:56.337Z,7.30
2022-08-18T00:13:01.153Z,4.88
2022-08-18T00:15:05.921Z,5.07
2022-08-18T00:17:07.746Z,7.72
2022-08-18T00:19:09.966Z,5.68
2022-08-18T00:21:11.760Z,6.20
2022-08-18T00:23:14.033Z,6.32
2022-08-18T00:25:18.158Z,7.93
2022-08-18T00:27:23.286Z,5.15
2022-08-18T00:29:26.164Z,5.45
2022-08-18T00:31:27.985Z,6.13
2022-08-18T00:33:29.905Z,4.57
2022-08-18T00:35:34.971Z,6.35
2022-08-18T00:37:36.723Z,5.38
2022-08-18T00:39:45.964Z,7.30
2022-08-18T00:41:48.416Z,5.88
2022-08-18T00:43:51.571Z,5.65
2022-08-18T00:45:53.895Z,6.57
2022-08-18T00:47:56.646Z,7.05
2022-08-18T00:49:58.891Z,4.85
2022-08-18T00:52:01.868Z,6.80
2022-08-18T00:54:11.566Z,8.95
2022-08-18T00:56:35.627Z,7.95
2022-08-18T00:59:04.412Z,7.18
2022-08-18T01:01:07.662Z,5.32
2022-08-18T01:03:15.444Z,4.95
2022-08-18T01:05:32.268Z,5.65
2022-08-18T01:07:42.921Z,7.30
2022-08-18T01:09:44.688Z,8.40
2022-08-18T01:11:46.716Z,4.82
2022-08-18T01:13:49.170Z,10.65
2022-08-18T01:15:50.952Z,6.85
2022-08-18T01:18:11.143Z,8.18
2022-08-18T01:20:34.441Z,7.25
2022-08-18T01:22:50.413Z,7.18
2022-08-18T01:25:11.252Z,7.32
2022-08-18T01:27:18.040Z,7.38
2022-08-18T01:29:20.305Z,7.82
2022-08-18T01:31:54.812Z,7.00
2022-08-18T01:33:57.459Z,7.00
2022-08-18T01:36:03.545Z,6.65
2022-08-18T01:38:05.933Z,6.57
2022-08-18T01:41:21.022Z,8.00
2022-08-18T01:42:36.499Z,8.38
2022-08-18T01:44:41.833Z,7.78
2022-08-18T01:46:43.650Z,9.13
2022-08-18T01:48:45.618Z,10.40
2022-08-18T01:50:50.094Z,8.68
2022-08-18T01:52:53.828Z,8.02
2022-08-18T01:54:58.476Z,7.38
2022-08-18T01:57:00.309Z,9.10
2022-08-18T01:59:02.085Z,9.23
2022-08-18T02:01:04.665Z,7.45
2022-08-18T02:03:09.018Z,7.40
2022-08-18T02:05:13.592Z,6.45
2022-08-18T02:07:15.347Z,6.85
2022-08-18T02:09:24.090Z,10.50
2022-08-18T02:11:26.508Z,13.30
2022-08-18T02:13:28.499Z,10.48
2022-08-18T02:15:30.875Z,7.78
2022-08-18T02:17:38.651Z,8.43
2022-08-18T02:19:45.718Z,10.63
2022-08-18T02:21:47.904Z,8.25
2022-08-18T02:23:53.499Z,12.43
2022-08-18T02:25:55.951Z,8.55
2022-08-18T02:27:58.282Z,9.00
2022-08-18T02:30:00.681Z,10.52
2022-08-18T02:32:02.754Z,11.52
2022-08-18T02:34:04.613Z,9.95
2022-08-18T02:36:07.513Z,13.65
2022-08-18T02:38:09.323Z,10.90
2022-08-18T02:40:16.276Z,9.73
2022-08-18T02:42:18.617Z,10.70
2022-08-18T02:44:23.441Z,12.45
2022-08-18T02:46:30.123Z,7.55
2022-08-18T02:48:34.940Z,12.13
2022-08-18T02:52:47.708Z,12.27
2022-08-18T02:54:49.876Z,9.23
2022-08-18T02:56:52.861Z,8.82
2022-08-18T02:59:06.200Z,11.18
2022-08-18T03:01:08.159Z,9.98
2022-08-18T03:03:10.029Z,11.85
2022-08-18T03:05:14.654Z,10.57
2022-08-18T03:07:17.880Z,11.88
2022-08-18T03:09:19.778Z,13.73
2022-08-18T03:11:24.430Z,7.72
2022-08-18T03:13:26.629Z,16.52
2022-08-18T03:15:28.399Z,9.85
2022-08-18T03:17:31.904Z,11.32
2022-08-18T03:19:34.571Z,8.70
2022-08-18T03:21:38.353Z,11.73
2022-08-18T03:23:42.766Z,11.75
2022-08-18T03:25:49.083Z,10.77
2022-08-18T03:27:51.008Z,12.23
2022-08-18T03:29:53.628Z,11.35
2022-08-18T03:31:55.902Z,11.00
2022-08-18T03:33:59.888Z,11.70
2022-08-18T03:36:08.210Z,12.40
2022-08-18T03:38:10.244Z,11.68
2022-08-18T03:40:12.440Z,10.20
2022-08-18T03:42:14.319Z,11.82
2022-08-18T03:44:16.260Z,16.40
2022-08-18T03:46:19.825Z,15.55
2022-08-18T03:50:27.015Z,15.45
2022-08-18T03:52:28.959Z,17.90
2022-08-18T03:54:33.871Z,10.70
2022-08-18T03:56:39.097Z,9.57
2022-08-18T03:58:41.613Z,10.15
2022-08-18T04:00:43.478Z,8.77
2022-08-18T04:02:45.414Z,11.30
2022-08-18T04:04:47.243Z,11.82
2022-08-18T04:06:57.306Z,8.38
2022-08-18T04:09:02.046Z,9.80
2022-08-18T04:11:03.959Z,10.45
2022-08-18T04:13:05.852Z,10.68
2022-08-18T04:15:08.002Z,17.60
2022-08-18T04:17:10.337Z,13.00
2022-08-18T04:19:13.850Z,14.10
2022-08-18T04:21:15.631Z,11.45
2022-08-18T04:23:17.873Z,10.85
2022-08-18T04:25:19.930Z,10.15
2022-08-18T04:27:24.288Z,11.18
2022-08-18T04:29:26.310Z,13.70
2022-08-18T04:31:29.702Z,12.07
2022-08-18T04:33:32.335Z,13.68
2022-08-18T04:35:34.166Z,12.00
2022-08-18T04:37:39.791Z,9.98
2022-08-18T04:39:44.291Z,11.77
2022-08-18T04:41:46.249Z,8.82
2022-08-18T04:43:49.828Z,10.93
2022-08-18T04:47:53.839Z,21.67
2022-08-18T04:49:55.767Z,12.27
2022-08-18T04:52:37.459Z,14.10
2022-08-18T04:54:40.681Z,13.88
2022-08-18T04:58:44.763Z,13.20
2022-08-18T05:00:57.231Z,14.10
2022-08-18T05:02:59.199Z,15.50
2022-08-18T05:05:04.790Z,22.25
2022-08-18T05:07:14.008Z,20.42
2022-08-18T05:09:22.819Z,12.70
2022-08-18T05:11:28.683Z,9.70
2022-08-18T05:13:30.764Z,12.80
2022-08-18T05:15:52.705Z,18.10
2022-08-18T05:17:56.769Z,11.40
2022-08-18T05:20:01.616Z,18.50
2022-08-18T05:22:04.407Z,21.20
2022-08-18T05:24:09.820Z,19.08
2022-08-18T05:26:13.900Z,20.10
2022-08-18T05:28:16.336Z,13.73
2022-08-18T05:30:18.322Z,13.63
2022-08-18T05:32:37.297Z,28.80
2022-08-18T05:34:50.203Z,16.35
2022-08-18T05:37:04.201Z,22.48
2022-08-18T05:39:19.130Z,20.35
2022-08-18T05:41:31.531Z,13.45
2022-08-18T05:43:33.665Z,16.85
2022-08-18T05:45:39.698Z,15.43
2022-08-18T05:47:41.787Z,20.90
2022-08-18T05:49:45.078Z,15.20
2022-08-18T05:51:52.747Z,14.13
2022-08-18T05:54:32.057Z,13.15
2022-08-18T05:56:49.251Z,17.25
2022-08-18T05:58:55.522Z,15.65
2022-08-18T06:01:03.146Z,19.80
2022-08-18T06:03:16.817Z,21.80
2022-08-18T06:05:29.161Z,13.60
2022-08-18T06:07:53.677Z,16.02
2022-08-18T06:09:56.063Z,17.90
2022-08-18T06:12:13.745Z,50.78
2022-08-18T06:14:15.687Z,14.55
2022-08-18T06:16:20.375Z,11.52
2022-08-18T06:18:47.482Z,9.93
2022-08-18T06:21:16.259Z,11.27
2022-08-18T06:23:32.256Z,14.20
2022-08-18T06:25:46.082Z,11.65
2022-08-18T06:30:12.166Z,12.55
2022-08-18T06:32:28.407Z,23.08
2022-08-18T06:34:49.014Z,15.07
2022-08-18T06:37:27.010Z,13.18
2022-08-18T06:39:36.457Z,10.23
2022-08-18T06:41:51.094Z,13.68
2022-08-18T06:44:01.658Z,11.43
2022-08-18T06:46:14.843Z,14.50
2022-08-18T06:48:22.410Z,12.48
2022-08-18T06:50:32.849Z,12.18
2022-08-18T06:52:37.369Z,19.90
2022-08-18T06:54:47.774Z,13.25
2022-08-18T06:56:54.803Z,8.32
2022-08-18T06:59:14.427Z,13.02
2022-08-18T07:01:17.855Z,13.45
2022-08-18T07:05:26.301Z,16.10
2022-08-18T07:07:40.865Z,16.88
2022-08-18T07:09:43.939Z,14.15
2022-08-18T07:12:07.305Z,13.35
2022-08-18T07:14:22.860Z,12.20
2022-08-18T07:16:54.546Z,10.27
2022-08-18T07:18:49.739Z,16.85
2022-08-18T07:21:00.670Z,13.73
2022-08-18T07:23:08.310Z,11.38
2022-08-18T07:25:22.174Z,14.23
2022-08-18T07:30:05.964Z,8.50
2022-08-18T07:32:21.469Z,7.53
2022-08-18T07:34:28.177Z,9.07
2022-08-18T07:36:34.264Z,11.40
2022-08-18T07:38:44.158Z,18.15
2022-08-18T07:41:03.030Z,13.02
2022-08-18T07:43:20.349Z,7.60
2022-08-18T07:45:32.948Z,9.30
2022-08-18T07:47:42.723Z,8.27
2022-08-18T07:50:16.492Z,8.43
2022-08-18T07:52:36.157Z,11.05
2022-08-18T07:54:53.862Z,11.57
2022-08-18T07:57:20.085Z,9.95
2022-08-18T07:59:28.399Z,10.25
2022-08-18T08:01:39.650Z,9.43
2022-08-18T08:03:51.815Z,12.20
2022-08-18T08:05:56.379Z,14.25
2022-08-18T08:08:06.352Z,10.55
2022-08-18T08:10:15.653Z,7.47
2022-08-18T08:12:32.584Z,10.82
2022-08-18T08:14:42.346Z,9.93
2022-08-18T08:16:49.006Z,7.88
2022-08-18T08:19:16.711Z,8.80
2022-08-18T08:21:21.759Z,9.85
2022-08-18T08:23:35.590Z,6.63
2022-08-18T08:26:00.841Z,7.82
2022-08-18T08:28:20.696Z,10.95
2022-08-18T08:30:25.176Z,7.93
2022-08-18T08:33:02.601Z,9.48
2022-08-18T08:35:49.737Z,7.20
2022-08-18T08:37:58.273Z,9.63
2022-08-18T08:40:08.602Z,8.25
2022-08-18T08:42:31.773Z,5.45
2022-08-18T08:44:58.145Z,7.20
2022-08-18T08:47:24.018Z,5.82
2022-08-18T08:49:36.127Z,9.93
2022-08-18T08:51:58.074Z,7.40
2022-08-18T08:54:07.969Z,14.27
2022-08-18T08:56:16.658Z,6.60
2022-08-18T08:58:26.159Z,8.02
2022-08-18T09:00:29.563Z,5.75
2022-08-18T09:02:48.531Z,6.60
2022-08-18T09:05:08.979Z,9.10
2022-08-18T09:07:44.144Z,7.53
2022-08-18T09:10:06.168Z,5.00
2022-08-18T09:12:18.562Z,7.18
2022-08-18T09:14:33.260Z,7.45
2022-08-18T09:17:12.036Z,5.85
2022-08-18T09:19:30.700Z,5.65
2022-08-18T09:21:35.371Z,4.18
2022-08-18T09:23:50.511Z,4.22
2022-08-18T09:25:55.482Z,6.95
2022-08-18T09:28:19.296Z,5.47
2022-08-18T09:32:56.044Z,4.93
2022-08-18T09:37:24.376Z,8.98
2022-08-18T09:39:56.874Z,6.65
2022-08-18T09:44:49.993Z,4.28
2022-08-18T09:46:54.136Z,7.30
2022-08-18T09:49:27.991Z,4.35
2022-08-18T09:51:40.187Z,5.43
2022-08-18T09:53:54.866Z,5.13
2022-08-18T09:56:01.682Z,5.47
2022-08-18T09:58:41.379Z,6.43
2022-08-18T10:01:25.364Z,8.52
2022-08-18T10:03:31.369Z,7.53
2022-08-18T10:05:34.700Z,8.27
2022-08-18T10:07:43.635Z,4.50
2022-08-18T10:10:59.791Z,4.68
2022-08-18T10:13:01.958Z,10.60
2022-08-18T10:15:34.631Z,6.18
2022-08-18T10:17:56.364Z,5.70
2022-08-18T10:22:48.236Z,6.47
2022-08-18T10:24:56.027Z,5.40
2022-08-18T10:27:00.528Z,5.78
2022-08-18T10:29:05.617Z,5.15
2022-08-18T10:31:10.353Z,9.25
2022-08-18T10:33:17.738Z,7.57
2022-08-18T10:35:35.651Z,4.70
2022-08-18T10:37:43.399Z,4.07
2022-08-18T10:39:50.974Z,7.93
2022-08-18T10:42:04.603Z,8.55
2022-08-18T10:44:27.438Z,4.05
2022-08-18T10:46:39.587Z,9.05
2022-08-18T10:48:44.705Z,8.32
2022-08-18T10:50:49.897Z,7.18
2022-08-18T10:53:10.230Z,7.82
2022-08-18T10:55:49.992Z,10.45
2022-08-18T10:58:13.649Z,4.88
2022-08-18T11:00:22.737Z,5.93
2022-08-18T11:03:13.840Z,6.13
2022-08-18T11:05:26.418Z,9.80
2022-08-18T11:07:35.663Z,9.07
2022-08-18T11:09:50.939Z,4.28
2022-08-18T11:12:02.016Z,5.40
2022-08-18T11:14:23.758Z,6.75
2022-08-18T11:16:54.213Z,5.97
2022-08-18T11:19:04.931Z,7.97
2022-08-18T11:21:32.698Z,6.93
2022-08-18T11:23:34.642Z,6.15
2022-08-18T11:25:38.482Z,5.05
2022-08-18T11:27:46.343Z,3.97
2022-08-18T11:29:49.234Z,4.95
2022-08-18T11:31:55.419Z,5.80
2022-08-18T11:34:01.413Z,5.03
2022-08-18T11:36:03.565Z,8.90
2022-08-18T11:38:13.083Z,6.68
2022-08-18T11:42:55.151Z,3.92
2022-08-18T11:45:08.034Z,4.55
2022-08-18T11:47:14.891Z,5.70
2022-08-18T11:49:30.109Z,6.30
2022-08-18T11:51:35.446Z,3.75
2022-08-18T11:53:52.492Z,6.85
2022-08-18T11:56:30.792Z,6.88
2022-08-18T11:58:46.268Z,5.93
2022-08-18T12:00:53.649Z,5.97
2022-08-18T12:05:10.402Z,4.13
2022-08-18T12:07:28.160Z,5.05
2022-08-18T12:10:14.787Z,5.63
2022-08-18T12:12:20.991Z,9.10
2022-08-18T12:14:31.435Z,9.27
2022-08-18T12:16:46.361Z,5.60
2022-08-18T12:18:48.678Z,5.18
2022-08-18T12:20:51.341Z,4.32
2022-08-18T12:22:56.645Z,5.63
2022-08-18T12:24:59.613Z,5.63
2022-08-18T12:27:01.448Z,4.80
2022-08-18T12:29:15.082Z,6.13
2022-08-18T12:31:17.969Z,8.55
2022-08-18T12:33:25.693Z,6.03
2022-08-18T12:35:36.716Z,5.43
2022-08-18T12:37:59.056Z,5.47
2022-08-18T12:40:02.907Z,4.60
2022-08-18T12:42:08.223Z,5.78
2022-08-18T12:44:13.320Z,7.45
2022-08-18T12:46:16.734Z,5.40
2022-08-18T12:52:47.878Z,5.65
2022-08-18T12:54:55.737Z,6.38
2022-08-18T12:56:58.632Z,8.05
2022-08-18T13:01:25.404Z,6.88
2022-08-18T13:03:28.269Z,5.10
2022-08-18T13:05:31.363Z,3.90
2022-08-18T13:07:33.487Z,5.07
2022-08-18T13:09:47.573Z,6.22
2022-08-18T13:11:55.793Z,6.30
2022-08-18T13:14:03.104Z,5.30
2022-08-18T13:16:16.330Z,6.82
2022-08-18T13:18:32.718Z,5.18
2022-08-18T13:20:34.513Z,7.05
2022-08-18T13:22:42.006Z,8.00
2022-08-18T13:24:43.766Z,4.75
2022-08-18T13:26:47.435Z,8.10
2022-08-18T13:28:57.168Z,4.53
2022-08-18T13:31:00.703Z,5.88
2022-08-18T13:33:33.870Z,4.03
2022-08-18T13:35:26.455Z,7.07
2022-08-18T13:37:32.176Z,8.75
2022-08-18T13:39:34.731Z,6.82
2022-08-18T13:41:37.118Z,3.80
2022-08-18T13:45:44.482Z,8.55
2022-08-18T13:47:47.435Z,6.33
2022-08-18T13:49:58.629Z,3.80
2022-08-18T13:52:03.321Z,4.53
2022-08-18T13:54:28.796Z,9.77
2022-08-18T13:56:31.574Z,8.20
2022-08-18T13:58:33.518Z,6.97
2022-08-18T14:00:35.672Z,7.00
2022-08-18T14:02:38.013Z,4.28
2022-08-18T14:04:40.325Z,5.78
2022-08-18T14:06:56.511Z,18.02
2022-08-18T14:09:00.418Z,5.07
2022-08-18T14:11:03.381Z,6.60
2022-08-18T14:13:18.500Z,3.67
2022-08-18T14:15:23.868Z,5.03
2022-08-18T14:17:26.454Z,4.53
2022-08-18T14:19:46.548Z,5.82
2022-08-18T14:22:11.184Z,7.32
2022-08-18T14:24:31.981Z,6.65
2022-08-18T14:26:50.020Z,10.15
2022-08-18T14:28:52.571Z,4.43
2022-08-18T14:30:55.378Z,5.78
2022-08-18T14:32:59.283Z,6.25
2022-08-18T14:35:31.883Z,5.18
2022-08-18T14:37:24.842Z,3.88
2022-08-18T14:39:27.631Z,4.07
2022-08-18T14:41:30.686Z,4.35
2022-08-18T14:45:58.062Z,6.93
2022-08-18T14:48:00.556Z,5.65
2022-08-18T14:52:05.774Z,6.68
2022-08-18T14:54:17.978Z,6.30
2022-08-18T14:56:20.576Z,8.90
2022-08-18T14:58:28.022Z,5.40
2022-08-18T15:00:30.191Z,6.32
2022-08-18T15:02:32.225Z,4.90
2022-08-18T15:04:38.335Z,4.20
2022-08-18T15:06:40.456Z,5.18
2022-08-18T15:08:56.967Z,5.27
2022-08-18T15:10:59.123Z,5.35
2022-08-18T15:13:01.092Z,7.15
2022-08-18T15:15:05.507Z,5.22
2022-08-18T15:17:13.204Z,6.45
2022-08-18T15:19:58.711Z,9.35
2022-08-18T15:21:57.168Z,6.45
2022-08-18T15:24:20.308Z,4.82
2022-08-18T15:26:25.045Z,5.00
2022-08-18T15:28:28.167Z,5.28
2022-08-18T15:30:30.722Z,7.20
2022-08-18T15:32:32.750Z,4.78
2022-08-18T15:34:46.061Z,5.60
2022-08-18T15:36:49.509Z,9.05
2022-08-18T15:38:51.720Z,5.72
2022-08-18T15:41:05.900Z,4.75
2022-08-18T15:43:10.060Z,7.63
2022-08-18T15:45:15.789Z,6.13
2022-08-18T15:47:20.818Z,5.43
2022-08-18T15:49:24.073Z,10.40
2022-08-18T15:51:25.912Z,7.13
2022-08-18T15:53:40.191Z,5.85
2022-08-18T15:55:46.845Z,6.00
2022-08-18T15:57:58.132Z,6.88
2022-08-18T16:00:01.158Z,6.40
2022-08-18T16:02:03.598Z,5.35
2022-08-18T16:06:16.597Z,5.70
2022-08-18T16:08:24.076Z,5.60
2022-08-18T16:10:28.179Z,6.45
2022-08-18T16:12:30.625Z,9.18
2022-08-18T16:14:32.641Z,6.00
2022-08-18T16:16:36.102Z,9.68
2022-08-18T16:18:39.297Z,6.47
2022-08-18T16:20:41.802Z,8.68
2022-08-18T16:22:43.592Z,12.27
2022-08-18T16:24:45.580Z,6.95
2022-08-18T16:26:56.362Z,5.97
2022-08-18T16:29:01.300Z,5.15
2022-08-18T16:31:04.437Z,6.53
2022-08-18T16:33:07.175Z,15.68
2022-08-18T16:35:09.601Z,6.43
2022-08-18T16:37:12.048Z,7.05
2022-08-18T16:39:13.927Z,5.75
2022-08-18T16:41:16.386Z,6.45
2022-08-18T16:43:18.275Z,5.20
2022-08-18T16:45:23.553Z,7.78
2022-08-18T16:47:25.399Z,6.30
2022-08-18T16:49:28.573Z,11.18
2022-08-18T16:53:40.511Z,6.35
2022-08-18T16:55:43.547Z,5.13
2022-08-18T16:58:04.266Z,5.20
2022-08-18T17:00:25.477Z,10.05
2022-08-18T17:02:46.228Z,7.63
2022-08-18T17:04:48.058Z,6.00
2022-08-18T17:06:50.774Z,6.60
2022-08-18T17:08:52.542Z,6.43
2022-08-18T17:10:55.167Z,5.75
2022-08-18T17:12:57.815Z,6.43
2022-08-18T17:14:59.789Z,6.85
2022-08-18T17:17:01.903Z,5.72
2022-08-18T17:19:06.657Z,10.25
2022-08-18T17:21:10.756Z,7.28
2022-08-18T17:23:13.010Z,7.30
2022-08-18T17:25:19.058Z,7.57
2022-08-18T17:27:37.581Z,9.73
2022-08-18T17:30:00.909Z,8.75
2022-08-18T17:32:20.161Z,7.80
2022-08-18T17:34:24.033Z,8.18
2022-08-18T17:36:42.232Z,6.57
2022-08-18T17:38:58.637Z,9.57
2022-08-18T17:41:01.633Z,7.07
2022-08-18T17:43:03.926Z,9.50
2022-08-18T17:45:10.872Z,5.50
2022-08-18T17:47:24.192Z,5.60
2022-08-18T17:50:01.949Z,8.80
2022-08-18T17:52:15.903Z,9.90
2022-08-18T17:54:29.876Z,6.68
2022-08-18T17:56:38.124Z,4.95
2022-08-18T17:58:45.111Z,6.20
2022-08-18T18:00:46.859Z,11.20
2022-08-18T18:02:48.778Z,5.88
2022-08-18T18:04:52.685Z,6.28
2022-08-18T18:06:56.307Z,8.20
2022-08-18T18:09:07.470Z,4.88
2022-08-18T18:11:12.133Z,6.15
2022-08-18T18:13:17.103Z,6.47
2022-08-18T18:15:31.012Z,5.78
2022-08-18T18:17:37.920Z,5.60
2022-08-18T18:19:44.456Z,11.68
2022-08-18T18:22:02.487Z,6.90
2022-08-18T18:24:07.154Z,7.55
2022-08-18T18:26:30.408Z,6.90
2022-08-18T18:28:34.385Z,9.18
2022-08-18T18:30:37.000Z,5.45
2022-08-18T18:32:49.039Z,4.60
2022-08-18T18:35:27.848Z,8.45
2022-08-18T18:37:33.217Z,5.63
2022-08-18T18:39:36.283Z,7.70
2022-08-18T18:41:40.032Z,6.20
2022-08-18T18:43:47.493Z,5.18
2022-08-18T18:46:19.556Z,6.68
2022-08-18T18:48:38.661Z,5.68
2022-08-18T18:51:01.983Z,6.57
2022-08-18T18:53:41.624Z,6.72
2022-08-18T18:55:55.577Z,6.57
2022-08-18T18:58:19.322Z,6.40
2022-08-18T19:00:25.337Z,6.60
2022-08-18T19:02:37.071Z,7.28
2022-08-18T19:04:44.933Z,8.15
2022-08-18T19:07:07.036Z,8.10
2022-08-18T19:09:20.314Z,5.88
2022-08-18T19:11:38.736Z,4.32
2022-08-18T19:13:45.686Z,6.90
2022-08-18T19:15:55.841Z,6.55
2022-08-18T19:18:17.358Z,5.75
2022-08-18T19:20:23.348Z,4.82
2022-08-18T19:22:54.608Z,6.82
2022-08-18T19:25:13.428Z,4.97
2022-08-18T19:27:24.638Z,5.00
2022-08-18T19:29:31.209Z,5.53
2022-08-18T19:31:37.194Z,6.93
2022-08-18T19:33:58.012Z,7.28
2022-08-18T19:36:08.843Z,7.63
2022-08-18T19:38:23.142Z,5.30
2022-08-18T19:40:34.397Z,8.70
2022-08-18T19:42:58.577Z,7.68
2022-08-18T19:45:18.110Z,5.82
2022-08-18T19:47:52.499Z,6.80
2022-08-18T19:50:36.608Z,6.03
2022-08-18T19:52:52.271Z,6.03
2022-08-18T19:55:06.649Z,4.82
2022-08-18T19:57:34.628Z,9.57
2022-08-18T20:00:12.287Z,5.47
2022-08-18T20:02:45.152Z,6.68
2022-08-18T20:05:20.713Z,5.13
2022-08-18T20:07:55.356Z,5.43
2022-08-18T20:10:09.508Z,9.25
2022-08-18T20:14:37.302Z,7.38
2022-08-18T20:16:45.320Z,4.85
2022-08-18T20:18:49.830Z,5.82
2022-08-18T20:21:22.723Z,4.53
2022-08-18T20:23:33.878Z,7.22
2022-08-18T20:25:44.314Z,4.82
2022-08-18T20:27:58.566Z,6.57
2022-08-18T20:30:24.184Z,9.38
2022-08-18T20:32:34.641Z,8.18
2022-08-18T20:34:36.522Z,7.93
2022-08-18T20:36:40.528Z,5.68
2022-08-18T20:38:48.283Z,8.15
2022-08-18T20:40:52.444Z,5.82
2022-08-18T20:42:57.548Z,4.45
2022-08-18T20:45:15.094Z,7.18
2022-08-18T20:47:48.097Z,5.88
2022-08-18T20:50:23.783Z,5.53
2022-08-18T20:52:37.965Z,4.65
2022-08-18T20:54:57.381Z,6.22
2022-08-18T20:57:02.415Z,6.70
2022-08-18T20:59:08.507Z,4.57
2022-08-18T21:01:12.338Z,7.22
2022-08-18T21:03:16.864Z,5.32
2022-08-18T21:05:28.250Z,6.30
2022-08-18T21:07:37.004Z,5.07
2022-08-18T21:09:39.517Z,4.95
2022-08-18T21:11:44.280Z,5.97
2022-08-18T21:13:47.405Z,3.38
2022-08-18T21:15:54.231Z,4.10
2022-08-18T21:18:18.627Z,7.45
2022-08-18T21:20:24.224Z,5.18
2022-08-18T21:22:27.565Z,7.93
2022-08-18T21:26:41.668Z,6.18
2022-08-18T21:28:47.621Z,3.67
2022-08-18T21:31:42.083Z,4.53
2022-08-18T21:33:22.368Z,5.05
2022-08-18T21:35:33.230Z,5.07
2022-08-18T21:37:40.853Z,6.30
2022-08-18T21:39:59.533Z,4.05
2022-08-18T21:42:02.150Z,4.35
2022-08-18T21:44:14.537Z,6.07
2022-08-18T21:46:28.448Z,6.85
2022-08-18T21:48:30.693Z,4.05
2022-08-18T21:50:34.775Z,5.80
2022-08-18T21:52:39.706Z,5.90
2022-08-18T21:54:41.672Z,7.40
2022-08-18T21:56:43.891Z,4.78
2022-08-18T21:58:47.126Z,5.65
2022-08-18T22:01:10.768Z,4.93
2022-08-18T22:03:22.912Z,6.40
2022-08-18T22:05:58.119Z,7.95
2022-08-18T22:07:55.219Z,6.25
2022-08-18T22:10:20.691Z,6.72
2022-08-18T22:12:43.971Z,5.10
2022-08-18T22:14:54.498Z,5.10
2022-08-18T22:17:24.835Z,5.15
2022-08-18T22:19:27.456Z,5.82
2022-08-18T22:21:38.147Z,4.65
2022-08-18T22:24:03.496Z,5.78
2022-08-18T22:26:30.580Z,7.13
2022-08-18T22:28:32.589Z,5.10
2022-08-18T22:30:34.315Z,8.82
2022-08-18T22:32:38.262Z,6.25
2022-08-18T22:34:40.746Z,6.15
2022-08-18T22:36:47.158Z,6.30
2022-08-18T22:38:49.362Z,5.00
2022-08-18T22:40:51.369Z,5.43
2022-08-18T22:42:53.682Z,10.48
2022-08-18T22:44:59.071Z,6.97
2022-08-18T22:47:05.228Z,8.13
2022-08-18T22:49:07.286Z,6.72
2022-08-18T22:51:09.801Z,11.82
2022-08-18T22:53:14.848Z,6.25
2022-08-18T22:55:21.871Z,7.03
2022-08-18T22:57:26.072Z,7.53
2022-08-18T22:59:28.985Z,8.18
2022-08-18T23:01:34.274Z,7.90
2022-08-18T23:03:41.912Z,6.45
2022-08-18T23:05:44.350Z,10.05
2022-08-18T23:07:46.296Z,6.30
2022-08-18T23:09:51.446Z,7.03
2022-08-18T23:11:56.203Z,8.10
2022-08-18T23:14:01.175Z,5.68
2022-08-18T23:16:30.609Z,6.50
2022-08-18T23:18:26.136Z,7.13
2022-08-18T23:20:28.508Z,6.32
2022-08-18T23:22:30.502Z,5.45
2022-08-18T23:24:32.752Z,6.70
2022-08-18T23:26:35.147Z,8.18
2022-08-18T23:28:37.372Z,5.60
2022-08-18T23:30:40.547Z,8.70
2022-08-18T23:32:43.664Z,7.85
2022-08-18T23:34:45.531Z,11.20
2022-08-18T23:36:56.636Z,11.75
2022-08-18T23:38:59.078Z,8.15
2022-08-18T23:41:00.906Z,10.13
2022-08-18T23:43:03.888Z,6.82
2022-08-18T23:45:06.186Z,7.40
2022-08-18T23:47:08.002Z,6.95
2022-08-18T23:49:10.830Z,8.95
2022-08-18T23:51:13.204Z,7.35
2022-08-18T23:53:18.954Z,11.20
2022-08-18T23:55:20.700Z,8.02
2022-08-18T23:57:22.559Z,7.70
2022-08-18T23:59:26.042Z,9.10
